sensor_id;sensor_type;location;lat;lon;timestamp;P1;durP1;ratioP1;P2;durP2;ratioP2
27313;SDS011;14800;48.174;9.798;2023-11-19T00:01:01;1.83;;;1.45;;
27313;SDS011;14800;48.174;9.798;2023-11-19T00:03:27;1.90;;;1.40;;
27313;SDS011;14800;48.174;9.798;2023-11-19T00:05:53;1.75;;;1.50;;
27313;SDS011;14800;48.174;9.798;2023-11-19T00:08:18;1.60;;;1.50;;
27313;SDS011;14800;48.174;9.798;2023-11-19T00:10:44;3.00;;;1.52;;
27313;SDS011;14800;48.174;9.798;2023-11-19T00:13:11;2.25;;;1.70;;
27313;SDS011;14800;48.174;9.798;2023-11-19T00:15:37;1.70;;;1.60;;
27313;SDS011;14800;48.174;9.798;2023-11-19T00:18:03;1.70;;;1.35;;
27313;SDS011;14800;48.174;9.798;2023-11-19T00:20:29;1.73;;;1.63;;
27313;SDS011;14800;48.174;9.798;2023-11-19T00:22:55;3.40;;;1.60;;
27313;SDS011;14800;48.174;9.798;2023-11-19T00:25:21;2.30;;;1.60;;
27313;SDS011;14800;48.174;9.798;2023-11-19T00:27:46;1.63;;;1.52;;
27313;SDS011;14800;48.174;9.798;2023-11-19T00:30:12;2.10;;;1.65;;
27313;SDS011;14800;48.174;9.798;2023-11-19T00:32:39;2.13;;;1.80;;
27313;SDS011;14800;48.174;9.798;2023-11-19T00:35:05;4.32;;;1.60;;
27313;SDS011;14800;48.174;9.798;2023-11-19T00:37:32;4.40;;;1.83;;
27313;SDS011;14800;48.174;9.798;2023-11-19T00:39:58;1.65;;;1.55;;
27313;SDS011;14800;48.174;9.798;2023-11-19T00:42:23;2.13;;;1.92;;
27313;SDS011;14800;48.174;9.798;2023-11-19T00:44:49;1.50;;;1.40;;
27313;SDS011;14800;48.174;9.798;2023-11-19T00:47:15;1.70;;;1.60;;
27313;SDS011;14800;48.174;9.798;2023-11-19T00:49:41;1.70;;;1.60;;
27313;SDS011;14800;48.174;9.798;2023-11-19T00:52:07;1.98;;;1.50;;
27313;SDS011;14800;48.174;9.798;2023-11-19T00:54:33;1.88;;;1.77;;
27313;SDS011;14800;48.174;9.798;2023-11-19T00:56:58;1.60;;;1.50;;
27313;SDS011;14800;48.174;9.798;2023-11-19T00:59:24;2.45;;;1.60;;
27313;SDS011;14800;48.174;9.798;2023-11-19T01:01:50;1.80;;;1.70;;
27313;SDS011;14800;48.174;9.798;2023-11-19T01:04:18;2.38;;;2.10;;
27313;SDS011;14800;48.174;9.798;2023-11-19T01:06:43;1.98;;;1.88;;
27313;SDS011;14800;48.174;9.798;2023-11-19T01:09:09;1.80;;;1.70;;
27313;SDS011;14800;48.174;9.798;2023-11-19T01:11:35;2.00;;;1.80;;
27313;SDS011;14800;48.174;9.798;2023-11-19T01:14:02;1.77;;;1.67;;
27313;SDS011;14800;48.174;9.798;2023-11-19T01:16:27;1.90;;;1.80;;
27313;SDS011;14800;48.174;9.798;2023-11-19T01:18:53;2.33;;;2.10;;
27313;SDS011;14800;48.174;9.798;2023-11-19T01:21:19;2.28;;;2.08;;
27313;SDS011;14800;48.174;9.798;2023-11-19T01:23:44;2.30;;;2.10;;
27313;SDS011;14800;48.174;9.798;2023-11-19T01:26:11;1.95;;;1.85;;
27313;SDS011;14800;48.174;9.798;2023-11-19T01:28:39;2.10;;;1.90;;
27313;SDS011;14800;48.174;9.798;2023-11-19T01:31:08;2.00;;;1.90;;
27313;SDS011;14800;48.174;9.798;2023-11-19T01:33:33;2.00;;;1.83;;
27313;SDS011;14800;48.174;9.798;2023-11-19T01:36:01;2.30;;;1.67;;
27313;SDS011;14800;48.174;9.798;2023-11-19T01:38:26;1.80;;;1.70;;
27313;SDS011;14800;48.174;9.798;2023-11-19T01:40:55;2.15;;;1.95;;
27313;SDS011;14800;48.174;9.798;2023-11-19T01:46:01;1.70;;;1.60;;
27313;SDS011;14800;48.174;9.798;2023-11-19T01:48:31;2.15;;;1.88;;
27313;SDS011;14800;48.174;9.798;2023-11-19T01:50:59;2.85;;;2.00;;
27313;SDS011;14800;48.174;9.798;2023-11-19T01:53:27;1.83;;;1.67;;
27313;SDS011;14800;48.174;9.798;2023-11-19T01:55:54;2.63;;;1.80;;
27313;SDS011;14800;48.174;9.798;2023-11-19T01:58:20;1.92;;;1.80;;
27313;SDS011;14800;48.174;9.798;2023-11-19T02:00:47;2.03;;;1.90;;
27313;SDS011;14800;48.174;9.798;2023-11-19T02:03:14;1.90;;;1.80;;
27313;SDS011;14800;48.174;9.798;2023-11-19T02:05:39;1.67;;;1.58;;
27313;SDS011;14800;48.174;9.798;2023-11-19T02:08:05;1.90;;;1.77;;
27313;SDS011;14800;48.174;9.798;2023-11-19T02:10:31;2.00;;;1.70;;
27313;SDS011;14800;48.174;9.798;2023-11-19T02:12:57;1.48;;;1.38;;
27313;SDS011;14800;48.174;9.798;2023-11-19T02:15:23;1.63;;;1.20;;
27313;SDS011;14800;48.174;9.798;2023-11-19T02:17:49;1.48;;;1.30;;
27313;SDS011;14800;48.174;9.798;2023-11-19T02:20:16;1.40;;;1.30;;
27313;SDS011;14800;48.174;9.798;2023-11-19T02:22:43;1.30;;;1.20;;
27313;SDS011;14800;48.174;9.798;2023-11-19T02:25:25;1.40;;;1.30;;
27313;SDS011;14800;48.174;9.798;2023-11-19T02:28:00;1.92;;;1.20;;
27313;SDS011;14800;48.174;9.798;2023-11-19T02:30:27;1.38;;;1.27;;
27313;SDS011;14800;48.174;9.798;2023-11-19T02:32:56;1.25;;;1.08;;
27313;SDS011;14800;48.174;9.798;2023-11-19T02:35:24;1.38;;;1.20;;
27313;SDS011;14800;48.174;9.798;2023-11-19T02:37:50;1.40;;;1.30;;
27313;SDS011;14800;48.174;9.798;2023-11-19T02:40:16;1.63;;;1.30;;
27313;SDS011;14800;48.174;9.798;2023-11-19T02:42:42;2.00;;;1.50;;
27313;SDS011;14800;48.174;9.798;2023-11-19T02:45:08;1.48;;;1.38;;
27313;SDS011;14800;48.174;9.798;2023-11-19T02:47:39;1.98;;;1.60;;
27313;SDS011;14800;48.174;9.798;2023-11-19T02:50:11;3.50;;;1.60;;
27313;SDS011;14800;48.174;9.798;2023-11-19T02:52:45;1.20;;;1.10;;
27313;SDS011;14800;48.174;9.798;2023-11-19T02:55:11;1.60;;;1.50;;
27313;SDS011;14800;48.174;9.798;2023-11-19T02:57:38;1.85;;;1.40;;
27313;SDS011;14800;48.174;9.798;2023-11-19T03:00:11;1.42;;;1.33;;
27313;SDS011;14800;48.174;9.798;2023-11-19T03:02:43;1.40;;;1.30;;
27313;SDS011;14800;48.174;9.798;2023-11-19T03:05:14;1.75;;;1.40;;
27313;SDS011;14800;48.174;9.798;2023-11-19T03:07:42;1.73;;;1.15;;
27313;SDS011;14800;48.174;9.798;2023-11-19T03:10:08;1.52;;;1.17;;
27313;SDS011;14800;48.174;9.798;2023-11-19T03:12:38;2.08;;;1.50;;
27313;SDS011;14800;48.174;9.798;2023-11-19T03:15:04;1.40;;;1.30;;
27313;SDS011;14800;48.174;9.798;2023-11-19T03:17:30;1.35;;;1.25;;
27313;SDS011;14800;48.174;9.798;2023-11-19T03:19:56;1.30;;;1.20;;
27313;SDS011;14800;48.174;9.798;2023-11-19T03:22:22;1.40;;;1.27;;
27313;SDS011;14800;48.174;9.798;2023-11-19T03:24:47;1.20;;;1.10;;
27313;SDS011;14800;48.174;9.798;2023-11-19T03:27:16;1.80;;;1.20;;
27313;SDS011;14800;48.174;9.798;2023-11-19T03:29:41;0.93;;;0.93;;
27313;SDS011;14800;48.174;9.798;2023-11-19T03:32:07;1.50;;;1.17;;
27313;SDS011;14800;48.174;9.798;2023-11-19T03:34:32;2.20;;;1.38;;
27313;SDS011;14800;48.174;9.798;2023-11-19T03:36:58;1.38;;;1.00;;
27313;SDS011;14800;48.174;9.798;2023-11-19T03:39:24;2.50;;;1.17;;
27313;SDS011;14800;48.174;9.798;2023-11-19T03:41:50;1.25;;;1.10;;
27313;SDS011;14800;48.174;9.798;2023-11-19T03:44:16;1.58;;;1.40;;
27313;SDS011;14800;48.174;9.798;2023-11-19T03:46:42;2.05;;;1.27;;
27313;SDS011;14800;48.174;9.798;2023-11-19T03:49:07;1.33;;;1.23;;
27313;SDS011;14800;48.174;9.798;2023-11-19T03:51:33;2.38;;;1.58;;
27313;SDS011;14800;48.174;9.798;2023-11-19T03:53:59;1.42;;;1.33;;
27313;SDS011;14800;48.174;9.798;2023-11-19T03:56:26;2.60;;;1.50;;
27313;SDS011;14800;48.174;9.798;2023-11-19T03:58:52;1.50;;;1.38;;
27313;SDS011;14800;48.174;9.798;2023-11-19T04:01:17;1.65;;;1.42;;
27313;SDS011;14800;48.174;9.798;2023-11-19T04:03:43;1.70;;;1.60;;
27313;SDS011;14800;48.174;9.798;2023-11-19T04:06:09;3.08;;;1.52;;
27313;SDS011;14800;48.174;9.798;2023-11-19T04:08:35;2.20;;;1.52;;
27313;SDS011;14800;48.174;9.798;2023-11-19T04:11:01;1.70;;;1.60;;
27313;SDS011;14800;48.174;9.798;2023-11-19T04:13:28;1.42;;;1.33;;
27313;SDS011;14800;48.174;9.798;2023-11-19T04:15:53;1.92;;;1.77;;
27313;SDS011;14800;48.174;9.798;2023-11-19T04:18:19;2.28;;;1.77;;
27313;SDS011;14800;48.174;9.798;2023-11-19T04:20:45;1.88;;;1.77;;
27313;SDS011;14800;48.174;9.798;2023-11-19T04:23:10;1.90;;;1.80;;
27313;SDS011;14800;48.174;9.798;2023-11-19T04:25:36;1.80;;;1.70;;
27313;SDS011;14800;48.174;9.798;2023-11-19T04:28:02;3.63;;;1.70;;
27313;SDS011;14800;48.174;9.798;2023-11-19T04:30:28;1.92;;;1.83;;
27313;SDS011;14800;48.174;9.798;2023-11-19T04:32:53;2.17;;;1.92;;
27313;SDS011;14800;48.174;9.798;2023-11-19T04:35:19;2.20;;;2.00;;
27313;SDS011;14800;48.174;9.798;2023-11-19T04:37:45;2.08;;;1.98;;
27313;SDS011;14800;48.174;9.798;2023-11-19T04:40:12;2.40;;;2.20;;
27313;SDS011;14800;48.174;9.798;2023-11-19T04:42:38;1.90;;;1.80;;
27313;SDS011;14800;48.174;9.798;2023-11-19T04:45:06;2.42;;;2.13;;
27313;SDS011;14800;48.174;9.798;2023-11-19T04:47:35;2.05;;;1.80;;
27313;SDS011;14800;48.174;9.798;2023-11-19T04:50:04;2.20;;;1.80;;
27313;SDS011;14800;48.174;9.798;2023-11-19T04:52:30;2.53;;;2.00;;
27313;SDS011;14800;48.174;9.798;2023-11-19T04:54:55;1.98;;;1.88;;
27313;SDS011;14800;48.174;9.798;2023-11-19T04:57:21;2.42;;;2.10;;
27313;SDS011;14800;48.174;9.798;2023-11-19T04:59:46;2.63;;;1.92;;
27313;SDS011;14800;48.174;9.798;2023-11-19T05:02:12;2.03;;;1.77;;
27313;SDS011;14800;48.174;9.798;2023-11-19T05:04:42;1.95;;;1.80;;
27313;SDS011;14800;48.174;9.798;2023-11-19T05:07:09;2.35;;;2.15;;
27313;SDS011;14800;48.174;9.798;2023-11-19T05:09:34;2.20;;;2.00;;
27313;SDS011;14800;48.174;9.798;2023-11-19T05:12:00;2.10;;;2.00;;
27313;SDS011;14800;48.174;9.798;2023-11-19T05:14:27;2.40;;;2.17;;
27313;SDS011;14800;48.174;9.798;2023-11-19T05:16:53;2.35;;;2.10;;
27313;SDS011;14800;48.174;9.798;2023-11-19T05:19:18;2.20;;;2.00;;
27313;SDS011;14800;48.174;9.798;2023-11-19T05:21:44;1.90;;;1.80;;
27313;SDS011;14800;48.174;9.798;2023-11-19T05:24:10;1.88;;;1.77;;
27313;SDS011;14800;48.174;9.798;2023-11-19T05:26:36;1.80;;;1.70;;
27313;SDS011;14800;48.174;9.798;2023-11-19T05:29:02;1.90;;;1.80;;
27313;SDS011;14800;48.174;9.798;2023-11-19T05:31:29;2.08;;;1.88;;
27313;SDS011;14800;48.174;9.798;2023-11-19T05:33:55;2.25;;;2.08;;
27313;SDS011;14800;48.174;9.798;2023-11-19T05:36:21;1.95;;;1.75;;
27313;SDS011;14800;48.174;9.798;2023-11-19T05:38:46;1.90;;;1.80;;
27313;SDS011;14800;48.174;9.798;2023-11-19T05:41:12;2.00;;;1.80;;
27313;SDS011;14800;48.174;9.798;2023-11-19T05:43:37;1.67;;;1.58;;
27313;SDS011;14800;48.174;9.798;2023-11-19T05:46:05;1.83;;;1.67;;
27313;SDS011;14800;48.174;9.798;2023-11-19T05:48:31;1.80;;;1.70;;
27313;SDS011;14800;48.174;9.798;2023-11-19T05:50:58;1.67;;;1.58;;
27313;SDS011;14800;48.174;9.798;2023-11-19T05:53:23;1.50;;;1.40;;
27313;SDS011;14800;48.174;9.798;2023-11-19T05:55:49;1.58;;;1.48;;
27313;SDS011;14800;48.174;9.798;2023-11-19T05:58:26;1.52;;;1.42;;
27313;SDS011;14800;48.174;9.798;2023-11-19T06:00:56;1.63;;;1.52;;
27313;SDS011;14800;48.174;9.798;2023-11-19T06:03:22;2.33;;;1.48;;
27313;SDS011;14800;48.174;9.798;2023-11-19T06:05:48;1.42;;;1.33;;
27313;SDS011;14800;48.174;9.798;2023-11-19T06:08:14;1.40;;;1.30;;
27313;SDS011;14800;48.174;9.798;2023-11-19T06:10:41;1.40;;;1.30;;
27313;SDS011;14800;48.174;9.798;2023-11-19T06:13:07;1.40;;;1.30;;
27313;SDS011;14800;48.174;9.798;2023-11-19T06:15:35;1.35;;;1.25;;
27313;SDS011;14800;48.174;9.798;2023-11-19T06:18:01;1.42;;;1.33;;
27313;SDS011;14800;48.174;9.798;2023-11-19T06:20:28;1.42;;;1.33;;
27313;SDS011;14800;48.174;9.798;2023-11-19T06:22:54;1.60;;;1.50;;
27313;SDS011;14800;48.174;9.798;2023-11-19T06:25:21;1.83;;;1.40;;
27313;SDS011;14800;48.174;9.798;2023-11-19T06:27:49;1.50;;;1.40;;
27313;SDS011;14800;48.174;9.798;2023-11-19T06:30:15;1.30;;;1.20;;
27313;SDS011;14800;48.174;9.798;2023-11-19T06:32:40;1.40;;;1.30;;
27313;SDS011;14800;48.174;9.798;2023-11-19T06:35:06;1.15;;;1.13;;
27313;SDS011;14800;48.174;9.798;2023-11-19T06:37:32;1.00;;;1.00;;
27313;SDS011;14800;48.174;9.798;2023-11-19T06:39:58;1.13;;;1.02;;
27313;SDS011;14800;48.174;9.798;2023-11-19T06:42:24;0.90;;;0.90;;
27313;SDS011;14800;48.174;9.798;2023-11-19T06:44:49;0.90;;;0.90;;
27313;SDS011;14800;48.174;9.798;2023-11-19T06:47:16;0.82;;;0.82;;
27313;SDS011;14800;48.174;9.798;2023-11-19T06:49:43;1.00;;;0.82;;
27313;SDS011;14800;48.174;9.798;2023-11-19T06:52:09;1.08;;;1.02;;
27313;SDS011;14800;48.174;9.798;2023-11-19T06:54:35;1.10;;;1.00;;
27313;SDS011;14800;48.174;9.798;2023-11-19T06:57:01;1.00;;;0.90;;
27313;SDS011;14800;48.174;9.798;2023-11-19T06:59:28;1.13;;;1.02;;
27313;SDS011;14800;48.174;9.798;2023-11-19T07:01:54;1.95;;;1.15;;
27313;SDS011;14800;48.174;9.798;2023-11-19T07:04:20;1.10;;;1.10;;
27313;SDS011;14800;48.174;9.798;2023-11-19T07:06:47;1.88;;;1.67;;
27313;SDS011;14800;48.174;9.798;2023-11-19T07:09:18;2.20;;;2.00;;
27313;SDS011;14800;48.174;9.798;2023-11-19T07:11:43;1.55;;;1.45;;
27313;SDS011;14800;48.174;9.798;2023-11-19T07:14:10;1.60;;;1.50;;
27313;SDS011;14800;48.174;9.798;2023-11-19T07:16:37;1.98;;;1.60;;
27313;SDS011;14800;48.174;9.798;2023-11-19T07:19:04;1.40;;;1.30;;
27313;SDS011;14800;48.174;9.798;2023-11-19T07:21:30;1.52;;;1.42;;
27313;SDS011;14800;48.174;9.798;2023-11-19T07:23:57;2.20;;;2.00;;
27313;SDS011;14800;48.174;9.798;2023-11-19T07:26:23;1.30;;;1.20;;
27313;SDS011;14800;48.174;9.798;2023-11-19T07:28:49;1.23;;;1.13;;
27313;SDS011;14800;48.174;9.798;2023-11-19T07:31:15;1.23;;;1.13;;
27313;SDS011;14800;48.174;9.798;2023-11-19T07:33:41;1.10;;;1.10;;
27313;SDS011;14800;48.174;9.798;2023-11-19T07:36:08;1.30;;;1.20;;
27313;SDS011;14800;48.174;9.798;2023-11-19T07:38:34;1.27;;;1.17;;
27313;SDS011;14800;48.174;9.798;2023-11-19T07:41:00;1.00;;;1.00;;
27313;SDS011;14800;48.174;9.798;2023-11-19T07:43:25;1.08;;;0.98;;
27313;SDS011;14800;48.174;9.798;2023-11-19T07:45:51;1.15;;;1.05;;
27313;SDS011;14800;48.174;9.798;2023-11-19T07:48:17;0.90;;;0.90;;
27313;SDS011;14800;48.174;9.798;2023-11-19T07:50:47;1.35;;;1.25;;
27313;SDS011;14800;48.174;9.798;2023-11-19T07:53:15;1.27;;;1.17;;
27313;SDS011;14800;48.174;9.798;2023-11-19T07:55:41;1.50;;;1.20;;
27313;SDS011;14800;48.174;9.798;2023-11-19T07:58:07;1.42;;;1.33;;
27313;SDS011;14800;48.174;9.798;2023-11-19T08:00:32;1.63;;;1.33;;
27313;SDS011;14800;48.174;9.798;2023-11-19T08:02:58;1.60;;;1.50;;
27313;SDS011;14800;48.174;9.798;2023-11-19T08:05:23;1.55;;;1.45;;
27313;SDS011;14800;48.174;9.798;2023-11-19T08:07:51;1.80;;;1.50;;
27313;SDS011;14800;48.174;9.798;2023-11-19T08:10:18;1.60;;;1.50;;
27313;SDS011;14800;48.174;9.798;2023-11-19T08:12:44;1.73;;;1.63;;
27313;SDS011;14800;48.174;9.798;2023-11-19T08:15:10;1.80;;;1.70;;
27313;SDS011;14800;48.174;9.798;2023-11-19T08:17:36;1.73;;;1.63;;
27313;SDS011;14800;48.174;9.798;2023-11-19T08:20:02;1.80;;;1.70;;
27313;SDS011;14800;48.174;9.798;2023-11-19T08:22:29;1.70;;;1.60;;
27313;SDS011;14800;48.174;9.798;2023-11-19T08:24:55;1.50;;;1.40;;
27313;SDS011;14800;48.174;9.798;2023-11-19T08:27:21;1.70;;;1.60;;
27313;SDS011;14800;48.174;9.798;2023-11-19T08:29:53;1.40;;;1.30;;
27313;SDS011;14800;48.174;9.798;2023-11-19T08:32:20;1.63;;;1.52;;
27313;SDS011;14800;48.174;9.798;2023-11-19T08:34:46;1.38;;;1.27;;
27313;SDS011;14800;48.174;9.798;2023-11-19T08:37:11;1.45;;;1.15;;
27313;SDS011;14800;48.174;9.798;2023-11-19T08:39:37;1.00;;;1.00;;
27313;SDS011;14800;48.174;9.798;2023-11-19T08:42:03;0.70;;;0.70;;
27313;SDS011;14800;48.174;9.798;2023-11-19T08:44:29;0.85;;;0.85;;
27313;SDS011;14800;48.174;9.798;2023-11-19T08:46:55;0.82;;;0.82;;
27313;SDS011;14800;48.174;9.798;2023-11-19T08:49:20;1.00;;;0.55;;
27313;SDS011;14800;48.174;9.798;2023-11-19T08:51:46;0.77;;;0.68;;
27313;SDS011;14800;48.174;9.798;2023-11-19T08:54:12;0.70;;;0.70;;
27313;SDS011;14800;48.174;9.798;2023-11-19T08:56:38;1.40;;;1.08;;
27313;SDS011;14800;48.174;9.798;2023-11-19T08:59:04;1.52;;;1.23;;
27313;SDS011;14800;48.174;9.798;2023-11-19T09:01:30;0.60;;;0.60;;
27313;SDS011;14800;48.174;9.798;2023-11-19T09:03:55;0.75;;;0.50;;
27313;SDS011;14800;48.174;9.798;2023-11-19T09:06:22;0.77;;;0.73;;
27313;SDS011;14800;48.174;9.798;2023-11-19T09:08:48;2.25;;;0.85;;
27313;SDS011;14800;48.174;9.798;2023-11-19T09:11:13;0.63;;;0.50;;
27313;SDS011;14800;48.174;9.798;2023-11-19T09:13:39;0.40;;;0.40;;
27313;SDS011;14800;48.174;9.798;2023-11-19T09:16:04;0.50;;;0.50;;
27313;SDS011;14800;48.174;9.798;2023-11-19T09:18:30;0.50;;;0.50;;
27313;SDS011;14800;48.174;9.798;2023-11-19T09:20:57;0.32;;;0.30;;
27313;SDS011;14800;48.174;9.798;2023-11-19T09:23:23;0.73;;;0.50;;
27313;SDS011;14800;48.174;9.798;2023-11-19T09:25:50;0.80;;;0.60;;
27313;SDS011;14800;48.174;9.798;2023-11-19T09:28:15;0.60;;;0.60;;
27313;SDS011;14800;48.174;9.798;2023-11-19T09:30:41;0.40;;;0.40;;
27313;SDS011;14800;48.174;9.798;2023-11-19T09:33:07;0.40;;;0.40;;
27313;SDS011;14800;48.174;9.798;2023-11-19T09:35:32;0.63;;;0.50;;
27313;SDS011;14800;48.174;9.798;2023-11-19T09:37:58;0.63;;;0.40;;
27313;SDS011;14800;48.174;9.798;2023-11-19T09:40:24;0.45;;;0.43;;
27313;SDS011;14800;48.174;9.798;2023-11-19T09:42:50;0.85;;;0.30;;
27313;SDS011;14800;48.174;9.798;2023-11-19T09:45:16;0.55;;;0.45;;
27313;SDS011;14800;48.174;9.798;2023-11-19T09:47:44;1.08;;;0.50;;
27313;SDS011;14800;48.174;9.798;2023-11-19T09:50:18;0.63;;;0.40;;
27313;SDS011;14800;48.174;9.798;2023-11-19T09:52:45;0.68;;;0.30;;
27313;SDS011;14800;48.174;9.798;2023-11-19T09:55:11;0.30;;;0.30;;
27313;SDS011;14800;48.174;9.798;2023-11-19T09:57:40;0.70;;;0.50;;
27313;SDS011;14800;48.174;9.798;2023-11-19T10:00:07;0.40;;;0.40;;
27313;SDS011;14800;48.174;9.798;2023-11-19T10:02:35;0.70;;;0.50;;
27313;SDS011;14800;48.174;9.798;2023-11-19T10:05:04;0.30;;;0.30;;
27313;SDS011;14800;48.174;9.798;2023-11-19T10:07:33;0.60;;;0.40;;
27313;SDS011;14800;48.174;9.798;2023-11-19T10:10:00;0.98;;;0.38;;
27313;SDS011;14800;48.174;9.798;2023-11-19T10:12:26;0.63;;;0.40;;
27313;SDS011;14800;48.174;9.798;2023-11-19T10:14:54;1.35;;;1.05;;
27313;SDS011;14800;48.174;9.798;2023-11-19T10:17:22;0.60;;;0.60;;
27313;SDS011;14800;48.174;9.798;2023-11-19T10:19:58;1.17;;;1.08;;
27313;SDS011;14800;48.174;9.798;2023-11-19T10:22:24;0.50;;;0.40;;
27313;SDS011;14800;48.174;9.798;2023-11-19T10:24:51;1.20;;;0.32;;
27313;SDS011;14800;48.174;9.798;2023-11-19T10:27:17;0.20;;;0.20;;
27313;SDS011;14800;48.174;9.798;2023-11-19T10:29:46;0.40;;;0.30;;
27313;SDS011;14800;48.174;9.798;2023-11-19T10:32:12;0.20;;;0.20;;
27313;SDS011;14800;48.174;9.798;2023-11-19T10:34:40;0.43;;;0.38;;
27313;SDS011;14800;48.174;9.798;2023-11-19T10:37:06;0.22;;;0.22;;
27313;SDS011;14800;48.174;9.798;2023-11-19T10:39:54;0.25;;;0.20;;
27313;SDS011;14800;48.174;9.798;2023-11-19T10:42:20;0.43;;;0.43;;
27313;SDS011;14800;48.174;9.798;2023-11-19T10:44:46;0.40;;;0.30;;
27313;SDS011;14800;48.174;9.798;2023-11-19T10:47:11;0.95;;;0.30;;
27313;SDS011;14800;48.174;9.798;2023-11-19T10:49:39;0.20;;;0.20;;
27313;SDS011;14800;48.174;9.798;2023-11-19T10:52:05;1.67;;;0.30;;
27313;SDS011;14800;48.174;9.798;2023-11-19T10:54:34;0.77;;;0.30;;
27313;SDS011;14800;48.174;9.798;2023-11-19T10:56:59;0.88;;;0.20;;
27313;SDS011;14800;48.174;9.798;2023-11-19T10:59:28;0.20;;;0.20;;
27313;SDS011;14800;48.174;9.798;2023-11-19T11:01:56;0.90;;;0.22;;
27313;SDS011;14800;48.174;9.798;2023-11-19T11:04:25;0.50;;;0.20;;
27313;SDS011;14800;48.174;9.798;2023-11-19T11:06:54;0.20;;;0.20;;
27313;SDS011;14800;48.174;9.798;2023-11-19T11:09:21;0.40;;;0.30;;
27313;SDS011;14800;48.174;9.798;2023-11-19T11:11:48;0.17;;;0.17;;
27313;SDS011;14800;48.174;9.798;2023-11-19T11:14:16;0.40;;;0.20;;
27313;SDS011;14800;48.174;9.798;2023-11-19T11:16:45;0.10;;;0.10;;
27313;SDS011;14800;48.174;9.798;2023-11-19T11:19:13;0.30;;;0.30;;
27313;SDS011;14800;48.174;9.798;2023-11-19T11:21:42;0.32;;;0.28;;
27313;SDS011;14800;48.174;9.798;2023-11-19T11:35:33;0.20;;;0.20;;
27313;SDS011;14800;48.174;9.798;2023-11-19T11:38:16;0.20;;;0.20;;
27313;SDS011;14800;48.174;9.798;2023-11-19T11:43:53;0.80;;;0.80;;
27313;SDS011;14800;48.174;9.798;2023-11-19T11:47:09;0.40;;;0.40;;
27313;SDS011;14800;48.174;9.798;2023-11-19T11:49:25;1.88;;;0.20;;
27313;SDS011;14800;48.174;9.798;2023-11-19T11:51:58;0.38;;;0.20;;
27313;SDS011;14800;48.174;9.798;2023-11-19T11:57:00;0.70;;;0.15;;
27313;SDS011;14800;48.174;9.798;2023-11-19T11:59:27;0.10;;;0.10;;
27313;SDS011;14800;48.174;9.798;2023-11-19T12:02:21;0.40;;;0.20;;
27313;SDS011;14800;48.174;9.798;2023-11-19T12:04:48;0.35;;;0.20;;
27313;SDS011;14800;48.174;9.798;2023-11-19T12:07:16;0.20;;;0.20;;
27313;SDS011;14800;48.174;9.798;2023-11-19T12:09:48;0.30;;;0.30;;
27313;SDS011;14800;48.174;9.798;2023-11-19T12:15:04;0.20;;;0.20;;
27313;SDS011;14800;48.174;9.798;2023-11-19T12:20:02;0.20;;;0.20;;
27313;SDS011;14800;48.174;9.798;2023-11-19T12:22:31;0.30;;;0.22;;
27313;SDS011;14800;48.174;9.798;2023-11-19T12:24:56;0.17;;;0.17;;
27313;SDS011;14800;48.174;9.798;2023-11-19T12:27:23;0.50;;;0.20;;
27313;SDS011;14800;48.174;9.798;2023-11-19T12:29:48;1.13;;;0.47;;
27313;SDS011;14800;48.174;9.798;2023-11-19T12:32:14;0.40;;;0.20;;
27313;SDS011;14800;48.174;9.798;2023-11-19T12:34:40;0.20;;;0.20;;
27313;SDS011;14800;48.174;9.798;2023-11-19T12:37:06;0.52;;;0.40;;
27313;SDS011;14800;48.174;9.798;2023-11-19T12:39:33;0.52;;;0.20;;
27313;SDS011;14800;48.174;9.798;2023-11-19T12:41:59;0.52;;;0.10;;
27313;SDS011;14800;48.174;9.798;2023-11-19T12:44:25;0.43;;;0.30;;
27313;SDS011;14800;48.174;9.798;2023-11-19T12:49:29;0.55;;;0.13;;
27313;SDS011;14800;48.174;9.798;2023-11-19T12:51:54;0.10;;;0.10;;
27313;SDS011;14800;48.174;9.798;2023-11-19T12:54:31;0.30;;;0.20;;
27313;SDS011;14800;48.174;9.798;2023-11-19T12:56:57;0.38;;;0.30;;
27313;SDS011;14800;48.174;9.798;2023-11-19T12:59:23;0.40;;;0.40;;
27313;SDS011;14800;48.174;9.798;2023-11-19T13:01:59;0.90;;;0.40;;
27313;SDS011;14800;48.174;9.798;2023-11-19T13:04:31;0.10;;;0.10;;
27313;SDS011;14800;48.174;9.798;2023-11-19T13:06:57;0.50;;;0.10;;
27313;SDS011;14800;48.174;9.798;2023-11-19T13:09:27;0.20;;;0.20;;
27313;SDS011;14800;48.174;9.798;2023-11-19T13:11:53;1.60;;;0.30;;
27313;SDS011;14800;48.174;9.798;2023-11-19T13:14:20;0.30;;;0.20;;
27313;SDS011;14800;48.174;9.798;2023-11-19T13:16:46;0.20;;;0.20;;
27313;SDS011;14800;48.174;9.798;2023-11-19T13:19:12;0.30;;;0.30;;
27313;SDS011;14800;48.174;9.798;2023-11-19T13:21:38;0.65;;;0.30;;
27313;SDS011;14800;48.174;9.798;2023-11-19T13:24:05;0.80;;;0.50;;
27313;SDS011;14800;48.174;9.798;2023-11-19T13:26:31;1.48;;;0.40;;
27313;SDS011;14800;48.174;9.798;2023-11-19T13:28:57;0.52;;;0.40;;
27313;SDS011;14800;48.174;9.798;2023-11-19T13:31:22;0.60;;;0.40;;
27313;SDS011;14800;48.174;9.798;2023-11-19T13:33:48;0.70;;;0.40;;
27313;SDS011;14800;48.174;9.798;2023-11-19T13:36:14;1.00;;;0.30;;
27313;SDS011;14800;48.174;9.798;2023-11-19T13:38:39;2.20;;;0.40;;
27313;SDS011;14800;48.174;9.798;2023-11-19T13:41:07;0.80;;;0.60;;
27313;SDS011;14800;48.174;9.798;2023-11-19T13:43:35;0.98;;;0.40;;
27313;SDS011;14800;48.174;9.798;2023-11-19T13:46:00;1.30;;;0.45;;
27313;SDS011;14800;48.174;9.798;2023-11-19T13:48:26;0.40;;;0.40;;
27313;SDS011;14800;48.174;9.798;2023-11-19T13:50:53;0.40;;;0.20;;
27313;SDS011;14800;48.174;9.798;2023-11-19T13:53:22;1.10;;;0.43;;
27313;SDS011;14800;48.174;9.798;2023-11-19T13:55:48;0.63;;;0.30;;
27313;SDS011;14800;48.174;9.798;2023-11-19T13:58:15;0.65;;;0.40;;
27313;SDS011;14800;48.174;9.798;2023-11-19T14:00:41;0.70;;;0.35;;
27313;SDS011;14800;48.174;9.798;2023-11-19T14:03:07;0.63;;;0.40;;
27313;SDS011;14800;48.174;9.798;2023-11-19T14:05:34;0.40;;;0.30;;
27313;SDS011;14800;48.174;9.798;2023-11-19T14:08:00;0.73;;;0.30;;
27313;SDS011;14800;48.174;9.798;2023-11-19T14:10:26;0.20;;;0.20;;
27313;SDS011;14800;48.174;9.798;2023-11-19T14:12:51;0.20;;;0.20;;
27313;SDS011;14800;48.174;9.798;2023-11-19T14:15:17;0.45;;;0.20;;
27313;SDS011;14800;48.174;9.798;2023-11-19T14:17:43;0.20;;;0.20;;
27313;SDS011;14800;48.174;9.798;2023-11-19T14:20:09;0.22;;;0.20;;
27313;SDS011;14800;48.174;9.798;2023-11-19T14:22:46;0.10;;;0.10;;
27313;SDS011;14800;48.174;9.798;2023-11-19T14:25:14;0.20;;;0.20;;
27313;SDS011;14800;48.174;9.798;2023-11-19T14:27:40;0.20;;;0.10;;
27313;SDS011;14800;48.174;9.798;2023-11-19T14:30:07;0.63;;;0.20;;
27313;SDS011;14800;48.174;9.798;2023-11-19T14:32:36;0.40;;;0.30;;
27313;SDS011;14800;48.174;9.798;2023-11-19T14:35:02;0.75;;;0.20;;
27313;SDS011;14800;48.174;9.798;2023-11-19T14:37:31;0.40;;;0.20;;
27313;SDS011;14800;48.174;9.798;2023-11-19T14:39:57;0.15;;;0.10;;
27313;SDS011;14800;48.174;9.798;2023-11-19T14:42:23;1.02;;;0.20;;
27313;SDS011;14800;48.174;9.798;2023-11-19T14:44:50;0.30;;;0.25;;
27313;SDS011;14800;48.174;9.798;2023-11-19T14:47:18;0.35;;;0.25;;
27313;SDS011;14800;48.174;9.798;2023-11-19T14:49:44;0.50;;;0.30;;
27313;SDS011;14800;48.174;9.798;2023-11-19T14:52:10;0.63;;;0.30;;
27313;SDS011;14800;48.174;9.798;2023-11-19T14:54:36;0.50;;;0.30;;
27313;SDS011;14800;48.174;9.798;2023-11-19T14:57:02;0.40;;;0.30;;
27313;SDS011;14800;48.174;9.798;2023-11-19T14:59:28;0.60;;;0.40;;
27313;SDS011;14800;48.174;9.798;2023-11-19T15:01:53;0.73;;;0.60;;
27313;SDS011;14800;48.174;9.798;2023-11-19T15:04:19;1.60;;;0.55;;
27313;SDS011;14800;48.174;9.798;2023-11-19T15:06:45;1.15;;;0.50;;
27313;SDS011;14800;48.174;9.798;2023-11-19T15:09:10;0.77;;;0.57;;
27313;SDS011;14800;48.174;9.798;2023-11-19T15:11:41;0.70;;;0.40;;
27313;SDS011;14800;48.174;9.798;2023-11-19T15:14:07;3.15;;;1.50;;